createdAt,value
2023-05-21T00:01:25.617Z,1.67
2023-05-21T00:03:52.713Z,2.00
2023-05-21T00:06:21.088Z,2.13
2023-05-21T00:08:48.074Z,1.63
2023-05-21T00:11:15.214Z,1.60
2023-05-21T00:13:42.136Z,2.28
2023-05-21T00:16:11.050Z,2.40
2023-05-21T00:18:39.375Z,2.15
2023-05-21T00:21:06.698Z,1.60
2023-05-21T00:23:34.074Z,1.85
2023-05-21T00:26:01.224Z,2.25
2023-05-21T00:28:28.114Z,2.00
2023-05-21T00:30:55.047Z,1.70
2023-05-21T00:33:22.737Z,2.05
2023-05-21T00:35:49.640Z,1.80
2023-05-21T00:38:18.486Z,2.20
2023-05-21T00:40:45.417Z,1.83
2023-05-21T00:43:14.245Z,2.05
2023-05-21T00:45:44.716Z,1.83
2023-05-21T00:48:12.698Z,2.38
2023-05-21T00:50:40.670Z,1.92
2023-05-21T00:53:11.395Z,2.30
2023-05-21T00:55:39.124Z,2.45
2023-05-21T00:58:08.151Z,2.35
2023-05-21T01:00:36.294Z,2.08
2023-05-21T01:03:04.643Z,2.50
2023-05-21T01:05:32.432Z,2.30
2023-05-21T01:07:59.793Z,2.47
2023-05-21T01:10:27.604Z,2.13
2023-05-21T01:12:57.370Z,1.85
2023-05-21T01:15:24.602Z,2.08
2023-05-21T01:17:51.931Z,1.80
2023-05-21T01:20:20.448Z,2.13
2023-05-21T01:22:54.507Z,2.42
2023-05-21T01:25:22.981Z,2.40
2023-05-21T01:27:50.916Z,2.10
2023-05-21T01:30:19.705Z,2.17
2023-05-21T01:33:02.264Z,1.95
2023-05-21T01:35:33.768Z,2.70
2023-05-21T01:38:16.759Z,2.42
2023-05-21T01:41:15.640Z,1.80
2023-05-21T01:43:45.153Z,1.95
2023-05-21T01:46:17.001Z,2.10
2023-05-21T01:48:44.501Z,2.00
2023-05-21T01:51:12.114Z,1.98
2023-05-21T01:53:40.594Z,2.50
2023-05-21T01:56:07.896Z,2.20
2023-05-21T01:58:34.915Z,2.17
2023-05-21T02:01:03.631Z,2.72
2023-05-21T02:03:31.861Z,1.98
2023-05-21T02:05:58.927Z,2.40
2023-05-21T02:08:27.269Z,2.30
2023-05-21T02:10:55.091Z,2.55
2023-05-21T02:13:25.835Z,2.42
2023-05-21T02:15:54.619Z,2.17
2023-05-21T02:18:22.207Z,2.65
2023-05-21T02:20:49.558Z,2.28
2023-05-21T02:23:16.701Z,2.42
2023-05-21T02:25:43.974Z,3.08
2023-05-21T02:28:10.854Z,2.67
2023-05-21T02:30:37.738Z,2.03
2023-05-21T02:33:05.282Z,1.98
2023-05-21T02:35:33.441Z,1.92
2023-05-21T02:38:03.143Z,2.08
2023-05-21T02:40:30.549Z,2.70
2023-05-21T02:42:57.347Z,2.28
2023-05-21T02:45:24.370Z,2.20
2023-05-21T02:47:51.575Z,2.30
2023-05-21T02:50:20.126Z,2.60
2023-05-21T02:52:53.747Z,2.33
2023-05-21T02:55:20.725Z,2.50
2023-05-21T02:57:48.092Z,2.92
2023-05-21T03:00:15.993Z,2.67
2023-05-21T03:02:43.782Z,2.75
2023-05-21T03:05:10.902Z,2.80
2023-05-21T03:07:37.760Z,2.47
2023-05-21T03:10:07.038Z,3.05
2023-05-21T03:12:34.007Z,2.97
2023-05-21T03:15:00.843Z,2.53
2023-05-21T03:17:28.354Z,2.53
2023-05-21T03:19:56.041Z,2.30
2023-05-21T03:22:22.932Z,2.75
2023-05-21T03:24:50.078Z,2.38
2023-05-21T03:27:18.329Z,2.58
2023-05-21T03:29:46.001Z,2.67
2023-05-21T03:32:14.877Z,2.95
2023-05-21T03:34:43.012Z,2.53
2023-05-21T03:37:09.980Z,2.63
2023-05-21T03:39:37.077Z,2.47
2023-05-21T03:42:04.362Z,2.53
2023-05-21T03:44:38.735Z,2.60
2023-05-21T03:47:19.905Z,2.20
2023-05-21T03:49:47.985Z,2.67
2023-05-21T03:52:14.889Z,2.67
2023-05-21T03:54:41.799Z,2.53
2023-05-21T03:57:09.983Z,2.42
2023-05-21T03:59:37.269Z,2.80
2023-05-21T04:02:04.978Z,2.47
2023-05-21T04:04:33.735Z,2.90
2023-05-21T04:07:01.082Z,2.75
2023-05-21T04:09:28.054Z,2.20
2023-05-21T04:11:55.196Z,2.90
2023-05-21T04:14:23.317Z,2.70
2023-05-21T04:16:52.055Z,2.15
2023-05-21T04:19:20.538Z,2.78
2023-05-21T04:21:47.955Z,2.72
2023-05-21T04:24:15.411Z,2.53
2023-05-21T04:26:49.877Z,2.88
2023-05-21T04:29:21.149Z,2.50
2023-05-21T04:31:49.897Z,2.58
2023-05-21T04:34:17.861Z,2.72
2023-05-21T04:36:46.267Z,3.00
2023-05-21T04:39:14.577Z,2.80
2023-05-21T04:41:41.551Z,2.85
2023-05-21T04:44:09.520Z,2.60
2023-05-21T04:46:38.925Z,2.58
2023-05-21T04:49:07.821Z,2.50
2023-05-21T04:51:37.713Z,2.95
2023-05-21T04:54:04.854Z,3.33
2023-05-21T04:56:31.970Z,3.40
2023-05-21T04:58:59.773Z,2.85
2023-05-21T05:01:29.354Z,3.05
2023-05-21T05:03:56.662Z,3.08
2023-05-21T05:06:25.898Z,2.55
2023-05-21T05:08:53.045Z,2.78
2023-05-21T05:11:21.235Z,2.80
2023-05-21T05:13:49.131Z,3.20
2023-05-21T05:16:18.384Z,2.25
2023-05-21T05:18:45.459Z,2.47
2023-05-21T05:21:13.472Z,3.03
2023-05-21T05:23:40.468Z,2.53
2023-05-21T05:26:08.494Z,3.40
2023-05-21T05:28:35.472Z,2.75
2023-05-21T05:31:02.566Z,2.67
2023-05-21T05:33:31.688Z,3.03
2023-05-21T05:35:58.736Z,2.95
2023-05-21T05:38:26.952Z,3.38
2023-05-21T05:40:53.873Z,2.67
2023-05-21T05:43:21.789Z,3.25
2023-05-21T05:45:49.177Z,3.03
2023-05-21T05:48:16.774Z,2.50
2023-05-21T05:50:45.336Z,2.55
2023-05-21T05:53:13.375Z,2.85
2023-05-21T05:55:41.058Z,2.97
2023-05-21T05:58:08.090Z,3.42
2023-05-21T06:00:47.734Z,3.13
2023-05-21T06:03:14.820Z,3.63
2023-05-21T06:05:42.822Z,3.28
2023-05-21T06:08:10.913Z,2.70
2023-05-21T06:10:37.766Z,3.03
2023-05-21T06:13:04.714Z,2.83
2023-05-21T06:15:31.581Z,2.88
2023-05-21T06:17:58.705Z,3.28
2023-05-21T06:20:25.966Z,3.05
2023-05-21T06:22:53.138Z,3.40
2023-05-21T06:25:19.983Z,2.70
2023-05-21T06:27:47.173Z,3.78
2023-05-21T06:30:19.870Z,3.40
2023-05-21T06:32:46.851Z,2.95
2023-05-21T06:35:14.301Z,3.28
2023-05-21T06:37:43.006Z,2.72
2023-05-21T06:40:10.111Z,3.05
2023-05-21T06:42:37.705Z,2.97
2023-05-21T06:45:37.142Z,3.38
2023-05-21T06:48:33.292Z,3.22
2023-05-21T06:51:00.222Z,3.38
2023-05-21T06:53:28.068Z,2.60
2023-05-21T06:55:55.414Z,3.45
2023-05-21T06:58:34.630Z,3.60
2023-05-21T07:01:01.657Z,3.38
2023-05-21T07:03:29.297Z,3.15
2023-05-21T07:05:57.206Z,3.03
2023-05-21T07:08:24.168Z,3.67
2023-05-21T07:10:51.094Z,3.67
2023-05-21T07:13:18.493Z,3.45
2023-05-21T07:15:47.405Z,2.83
2023-05-21T07:18:14.666Z,3.45
2023-05-21T07:20:41.746Z,3.38
2023-05-21T07:23:12.317Z,3.00
2023-05-21T07:25:39.332Z,3.40
2023-05-21T07:28:06.765Z,3.92
2023-05-21T07:30:35.837Z,3.30
2023-05-21T07:33:05.822Z,3.72
2023-05-21T07:35:33.048Z,3.85
2023-05-21T07:38:00.003Z,3.50
2023-05-21T07:40:27.376Z,3.38
2023-05-21T07:42:54.738Z,3.28
2023-05-21T07:45:24.517Z,3.20
2023-05-21T07:47:51.488Z,3.72
2023-05-21T07:50:19.353Z,3.72
2023-05-21T07:52:46.363Z,3.35
2023-05-21T07:55:13.418Z,3.88
2023-05-21T07:57:41.721Z,4.20
2023-05-21T08:00:14.280Z,3.40
2023-05-21T08:02:52.297Z,3.60
2023-05-21T08:05:21.212Z,3.65
2023-05-21T08:07:49.089Z,3.60
2023-05-21T08:10:18.483Z,3.55
2023-05-21T08:12:47.497Z,4.00
2023-05-21T08:15:14.587Z,3.78
2023-05-21T08:17:45.044Z,4.00
2023-05-21T08:20:14.377Z,3.92
2023-05-21T08:22:43.650Z,3.47
2023-05-21T08:25:10.938Z,3.95
2023-05-21T08:27:38.177Z,3.80
2023-05-21T08:30:05.988Z,3.72
2023-05-21T08:32:32.934Z,4.05
2023-05-21T08:35:00.887Z,3.92
2023-05-21T08:37:46.612Z,3.60
2023-05-21T08:40:21.367Z,3.55
2023-05-21T08:42:49.932Z,4.05
2023-05-21T08:45:23.332Z,3.97
2023-05-21T08:47:57.025Z,3.80
2023-05-21T08:50:27.933Z,4.18
2023-05-21T08:52:59.055Z,3.40
2023-05-21T08:55:26.964Z,3.33
2023-05-21T08:57:55.085Z,4.07
2023-05-21T09:00:24.196Z,4.45
2023-05-21T09:02:54.549Z,3.85
2023-05-21T09:05:22.697Z,3.80
2023-05-21T09:08:01.331Z,4.00
2023-05-21T09:10:53.878Z,4.35
2023-05-21T09:13:26.387Z,3.33
2023-05-21T09:15:54.272Z,4.38
2023-05-21T09:18:23.557Z,4.28
2023-05-21T09:20:56.493Z,4.00
2023-05-21T09:23:28.839Z,4.13
2023-05-21T09:25:55.976Z,4.20
2023-05-21T09:28:29.903Z,4.30
2023-05-21T09:30:56.899Z,3.88
2023-05-21T09:33:29.504Z,4.65
2023-05-21T09:35:56.854Z,4.90
2023-05-21T09:38:26.185Z,4.47
2023-05-21T09:40:56.929Z,4.20
2023-05-21T09:43:25.435Z,4.63
2023-05-21T09:45:55.752Z,4.57
2023-05-21T09:48:36.486Z,4.85
2023-05-21T09:51:10.700Z,5.28
2023-05-21T09:53:53.576Z,5.20
2023-05-21T09:56:30.808Z,4.43
2023-05-21T09:59:01.408Z,4.13
2023-05-21T10:01:33.418Z,5.03
2023-05-21T10:04:02.443Z,4.38
2023-05-21T10:06:33.706Z,4.25
2023-05-21T10:09:06.981Z,4.30
2023-05-21T10:11:36.463Z,4.60
2023-05-21T10:14:07.416Z,4.68
2023-05-21T10:16:35.892Z,4.30
2023-05-21T10:19:04.743Z,4.68
2023-05-21T10:21:33.466Z,4.88
2023-05-21T10:24:03.097Z,5.65
2023-05-21T10:26:30.779Z,5.50
2023-05-21T10:29:01.060Z,4.47
2023-05-21T10:31:28.514Z,4.72
2023-05-21T10:33:56.068Z,5.10
2023-05-21T10:36:24.654Z,4.47
2023-05-21T10:38:51.527Z,4.95
2023-05-21T10:41:21.851Z,4.93
2023-05-21T10:43:54.800Z,4.60
2023-05-21T10:47:00.863Z,5.05
2023-05-21T10:50:03.614Z,4.35
2023-05-21T10:52:57.916Z,4.95
2023-05-21T10:55:55.218Z,4.22
2023-05-21T10:59:02.892Z,4.72
2023-05-21T11:01:34.009Z,4.55
2023-05-21T11:04:01.779Z,4.50
2023-05-21T11:06:28.826Z,4.43
2023-05-21T11:08:56.012Z,5.03
2023-05-21T11:11:58.784Z,4.95
2023-05-21T11:14:39.077Z,4.93
2023-05-21T11:17:15.833Z,5.10
2023-05-21T11:19:47.395Z,5.25
2023-05-21T11:22:26.486Z,5.75
2023-05-21T11:24:55.489Z,5.30
2023-05-21T11:27:37.303Z,5.60
2023-05-21T11:30:17.895Z,5.80
2023-05-21T11:33:11.269Z,6.47
2023-05-21T11:35:54.434Z,5.53
2023-05-21T11:38:21.595Z,5.43
2023-05-21T11:40:56.339Z,5.97
2023-05-21T11:43:23.265Z,5.60
2023-05-21T11:45:52.581Z,5.22
2023-05-21T11:48:26.700Z,5.25
2023-05-21T11:50:54.500Z,5.30
2023-05-21T11:53:21.665Z,5.78
2023-05-21T11:55:48.816Z,4.80
2023-05-21T11:58:16.669Z,5.35
2023-05-21T12:00:43.873Z,4.70
2023-05-21T12:03:14.688Z,5.43
2023-05-21T12:05:48.980Z,5.30
2023-05-21T12:08:25.258Z,5.63
2023-05-21T12:11:01.849Z,4.70
2023-05-21T12:13:29.149Z,5.15
2023-05-21T12:15:56.298Z,5.32
2023-05-21T12:18:23.192Z,4.55
2023-05-21T12:20:52.200Z,4.80
2023-05-21T12:23:26.114Z,5.15
2023-05-21T12:25:56.217Z,5.25
2023-05-21T12:28:24.533Z,5.53
2023-05-21T12:30:51.428Z,5.63
2023-05-21T12:33:19.595Z,5.40
2023-05-21T12:35:50.412Z,5.18
2023-05-21T12:38:17.597Z,5.50
2023-05-21T12:40:45.571Z,5.55
2023-05-21T12:43:12.791Z,5.10
2023-05-21T12:45:40.026Z,4.90
2023-05-21T12:48:07.392Z,5.15
2023-05-21T12:50:35.902Z,4.97
2023-05-21T12:53:03.484Z,5.78
2023-05-21T12:55:31.470Z,5.20
2023-05-21T12:58:09.317Z,5.28
2023-05-21T13:00:37.130Z,5.65
2023-05-21T13:03:06.220Z,5.10
2023-05-21T13:05:33.712Z,5.10
2023-05-21T13:08:00.654Z,5.40
2023-05-21T13:10:27.665Z,4.80
2023-05-21T13:12:54.631Z,4.80
2023-05-21T13:15:21.647Z,4.95
2023-05-21T13:17:50.102Z,5.13
2023-05-21T13:20:21.314Z,5.68
2023-05-21T13:22:50.709Z,5.72
2023-05-21T13:25:23.413Z,6.18
2023-05-21T13:27:52.186Z,5.70
2023-05-21T13:30:19.952Z,5.10
2023-05-21T13:32:47.482Z,6.65
2023-05-21T13:35:16.495Z,4.53
2023-05-21T13:37:44.346Z,4.65
2023-05-21T13:40:16.789Z,4.63
2023-05-21T13:42:45.917Z,5.73
2023-05-21T13:45:15.529Z,5.30
2023-05-21T13:47:43.341Z,5.18
2023-05-21T13:50:10.862Z,5.47
2023-05-21T13:52:38.758Z,4.65
2023-05-21T13:55:06.466Z,5.55
2023-05-21T13:57:33.634Z,5.65
2023-05-21T14:00:00.965Z,4.93
2023-05-21T14:02:27.909Z,4.68
2023-05-21T14:04:54.932Z,6.07
2023-05-21T14:07:22.230Z,4.43
2023-05-21T14:09:50.351Z,4.90
2023-05-21T14:12:17.402Z,4.43
2023-05-21T14:14:44.527Z,4.90
2023-05-21T14:17:11.508Z,4.85
2023-05-21T14:19:38.345Z,4.93
2023-05-21T14:22:05.398Z,4.55
2023-05-21T14:24:32.466Z,4.50
2023-05-21T14:26:59.383Z,4.57
2023-05-21T14:29:26.333Z,4.85
2023-05-21T14:31:53.237Z,3.88
2023-05-21T14:34:20.214Z,4.45
2023-05-21T14:36:47.169Z,4.75
2023-05-21T14:39:14.143Z,4.60
2023-05-21T14:41:41.250Z,3.97
2023-05-21T14:44:08.278Z,4.85
2023-05-21T14:46:36.842Z,4.70
2023-05-21T14:49:03.925Z,4.00
2023-05-21T14:51:31.553Z,4.65
2023-05-21T14:53:58.834Z,5.10
2023-05-21T14:56:27.565Z,4.70
2023-05-21T14:58:54.864Z,4.97
2023-05-21T15:01:21.829Z,4.63
2023-05-21T15:03:49.242Z,3.90
2023-05-21T15:06:16.338Z,5.07
2023-05-21T15:08:43.232Z,4.95
2023-05-21T15:11:10.281Z,4.78
2023-05-21T15:13:37.750Z,5.35
2023-05-21T15:16:04.854Z,4.75
2023-05-21T15:18:31.776Z,4.47
2023-05-21T15:20:59.159Z,5.00
2023-05-21T15:23:26.048Z,4.95
2023-05-21T15:25:53.053Z,4.63
2023-05-21T15:28:20.334Z,4.13
2023-05-21T15:30:47.216Z,5.07
2023-05-21T15:33:14.392Z,4.88
2023-05-21T15:35:41.875Z,4.60
2023-05-21T15:38:09.158Z,5.00
2023-05-21T15:40:36.069Z,5.82
2023-05-21T15:43:02.987Z,4.38
2023-05-21T15:45:29.819Z,4.57
2023-05-21T15:47:56.936Z,4.68
2023-05-21T15:50:25.456Z,5.00
2023-05-21T15:52:53.436Z,5.18
2023-05-21T15:55:20.975Z,5.03
2023-05-21T15:57:47.885Z,4.85
2023-05-21T16:00:15.119Z,5.07
2023-05-21T16:02:42.164Z,4.50
2023-05-21T16:05:09.546Z,5.05
2023-05-21T16:07:37.890Z,4.65
2023-05-21T16:10:06.386Z,5.15
2023-05-21T16:12:34.224Z,5.68
2023-05-21T16:15:01.136Z,4.68
2023-05-21T16:17:28.101Z,5.38
2023-05-21T16:19:54.987Z,4.75
2023-05-21T16:22:23.189Z,4.78
2023-05-21T16:24:50.448Z,4.82
2023-05-21T16:27:17.370Z,5.07
2023-05-21T16:29:44.853Z,4.72
2023-05-21T16:32:16.021Z,5.18
2023-05-21T16:34:43.210Z,5.63
2023-05-21T16:37:10.212Z,5.10
2023-05-21T16:39:37.311Z,4.82
2023-05-21T16:42:04.343Z,5.30
2023-05-21T16:44:31.984Z,4.72
2023-05-21T16:46:59.760Z,5.18
2023-05-21T16:49:27.604Z,5.18
2023-05-21T16:51:55.062Z,5.53
2023-05-21T16:54:22.001Z,4.68
2023-05-21T16:56:49.024Z,5.65
2023-05-21T16:59:16.202Z,4.85
2023-05-21T17:01:43.238Z,5.30
2023-05-21T17:04:10.936Z,4.68
2023-05-21T17:06:37.839Z,5.15
2023-05-21T17:09:04.773Z,5.05
2023-05-21T17:11:31.738Z,5.65
2023-05-21T17:13:58.691Z,5.15
2023-05-21T17:16:26.128Z,5.70
2023-05-21T17:18:53.076Z,5.55
2023-05-21T17:21:19.986Z,5.93
2023-05-21T17:23:46.919Z,5.03
2023-05-21T17:26:14.938Z,5.03
2023-05-21T17:28:43.049Z,5.22
2023-05-21T17:31:10.259Z,5.32
2023-05-21T17:33:37.612Z,5.00
2023-05-21T17:36:04.771Z,5.32
2023-05-21T17:38:31.746Z,4.72
2023-05-21T17:40:59.191Z,5.75
2023-05-21T17:43:31.903Z,4.70
2023-05-21T17:45:58.938Z,5.78
2023-05-21T17:48:26.131Z,5.07
2023-05-21T17:50:53.119Z,4.78
2023-05-21T17:53:19.973Z,6.10
2023-05-21T17:55:47.791Z,5.80
2023-05-21T17:58:15.670Z,5.00
2023-05-21T18:00:42.595Z,4.68
2023-05-21T18:03:09.562Z,4.90
2023-05-21T18:05:36.863Z,5.22
2023-05-21T18:08:04.709Z,4.88
2023-05-21T18:10:31.594Z,4.93
2023-05-21T18:12:58.532Z,4.82
2023-05-21T18:15:25.467Z,4.55
2023-05-21T18:17:52.951Z,5.35
2023-05-21T18:20:20.040Z,4.35
2023-05-21T18:22:47.054Z,4.60
2023-05-21T18:25:13.855Z,5.03
2023-05-21T18:27:40.760Z,5.10
2023-05-21T18:30:08.780Z,3.95
2023-05-21T18:32:39.276Z,4.10
2023-05-21T18:35:07.903Z,3.30
2023-05-21T18:37:34.833Z,3.72
2023-05-21T18:40:01.739Z,3.33
2023-05-21T18:42:28.735Z,3.28
2023-05-21T18:44:56.604Z,3.28
2023-05-21T18:47:23.680Z,4.05
2023-05-21T18:49:50.658Z,3.10
2023-05-21T18:52:17.648Z,3.50
2023-05-21T18:54:44.509Z,3.60
2023-05-21T18:57:11.920Z,3.47
2023-05-21T18:59:38.928Z,3.85
2023-05-21T19:02:05.983Z,3.22
2023-05-21T19:04:33.098Z,3.33
2023-05-21T19:07:00.138Z,3.50
2023-05-21T19:09:30.816Z,3.15
2023-05-21T19:12:00.636Z,3.10
2023-05-21T19:14:27.535Z,2.75
2023-05-21T19:16:54.499Z,4.13
2023-05-21T19:19:21.758Z,4.07
2023-05-21T19:21:48.789Z,3.17
2023-05-21T19:24:15.728Z,3.53
2023-05-21T19:26:44.758Z,3.08
2023-05-21T19:29:11.915Z,3.15
2023-05-21T19:31:42.688Z,3.10
2023-05-21T19:34:10.864Z,3.78
2023-05-21T19:36:51.687Z,3.22
2023-05-21T19:39:19.685Z,3.42
2023-05-21T19:41:46.816Z,3.03
2023-05-21T19:44:13.741Z,2.55
2023-05-21T19:46:40.798Z,3.08
2023-05-21T19:49:10.386Z,3.22
2023-05-21T19:51:37.279Z,3.92
2023-05-21T19:54:04.318Z,3.60
2023-05-21T19:56:31.359Z,3.15
2023-05-21T19:58:59.290Z,3.20
2023-05-21T20:01:26.316Z,3.58
2023-05-21T20:03:53.181Z,2.97
2023-05-21T20:06:20.684Z,2.75
2023-05-21T20:08:48.059Z,2.83
2023-05-21T20:11:15.050Z,3.33
2023-05-21T20:13:42.444Z,2.88
2023-05-21T20:16:10.502Z,3.00
2023-05-21T20:18:37.691Z,3.60
2023-05-21T20:21:08.204Z,2.85
2023-05-21T20:23:36.755Z,3.15
2023-05-21T20:26:03.618Z,3.28
2023-05-21T20:28:30.577Z,2.95
2023-05-21T20:30:57.980Z,2.78
2023-05-21T20:33:27.321Z,3.25
2023-05-21T20:35:54.273Z,2.67
2023-05-21T20:38:21.588Z,3.70
2023-05-21T20:40:48.722Z,3.38
2023-05-21T20:43:15.666Z,2.72
2023-05-21T20:45:43.622Z,3.53
2023-05-21T20:48:11.993Z,2.58
2023-05-21T20:50:40.886Z,3.67
2023-05-21T20:53:08.530Z,4.25
2023-05-21T20:55:36.899Z,2.85
2023-05-21T20:58:04.816Z,3.35
2023-05-21T21:00:33.295Z,3.13
2023-05-21T21:03:03.833Z,3.60
2023-05-21T21:05:30.979Z,3.25
2023-05-21T21:08:02.288Z,3.33
2023-05-21T21:10:29.399Z,3.60
2023-05-21T21:12:56.421Z,3.15
2023-05-21T21:15:23.402Z,3.38
2023-05-21T21:17:50.353Z,3.83
2023-05-21T21:20:18.616Z,3.70
2023-05-21T21:22:46.168Z,3.25
2023-05-21T21:25:15.948Z,3.53
2023-05-21T21:27:43.297Z,3.80
2023-05-21T21:30:10.841Z,4.38
2023-05-21T21:32:37.829Z,4.32
2023-05-21T21:35:06.040Z,3.97
2023-05-21T21:37:33.033Z,3.70
2023-05-21T21:40:00.034Z,4.32
2023-05-21T21:42:26.972Z,4.35
2023-05-21T21:44:54.782Z,3.78
2023-05-21T21:47:21.753Z,4.22
2023-05-21T21:49:49.120Z,4.55
2023-05-21T21:52:17.451Z,4.30
2023-05-21T21:54:44.411Z,3.53
2023-05-21T21:57:11.374Z,4.65
2023-05-21T21:59:39.315Z,4.25
2023-05-21T22:02:06.187Z,5.22
2023-05-21T22:04:33.261Z,5.45
2023-05-21T22:07:01.646Z,4.47
2023-05-21T22:09:28.879Z,4.13
2023-05-21T22:11:56.394Z,5.30
2023-05-21T22:14:23.845Z,4.93
2023-05-21T22:16:53.148Z,4.00
2023-05-21T22:19:22.027Z,4.82
2023-05-21T22:21:49.096Z,5.15
2023-05-21T22:24:30.919Z,5.03
2023-05-21T22:26:59.262Z,5.63
2023-05-21T22:29:27.201Z,5.68
2023-05-21T22:31:54.069Z,5.07
2023-05-21T22:34:22.269Z,5.68
2023-05-21T22:36:53.029Z,6.40
2023-05-21T22:39:19.866Z,6.43
2023-05-21T22:41:46.945Z,6.13
2023-05-21T22:44:13.781Z,7.13
2023-05-21T22:46:42.082Z,7.00
2023-05-21T22:49:10.207Z,7.00
2023-05-21T22:51:37.465Z,7.18
2023-05-21T22:54:04.770Z,8.43
2023-05-21T22:56:31.735Z,8.45
2023-05-21T22:58:59.479Z,8.63
2023-05-21T23:01:26.564Z,8.20
2023-05-21T23:03:53.493Z,8.43
2023-05-21T23:06:22.821Z,7.40
2023-05-21T23:08:51.064Z,7.45
2023-05-21T23:11:18.015Z,7.80
2023-05-21T23:13:44.897Z,9.27
2023-05-21T23:16:12.590Z,7.95
2023-05-21T23:18:40.895Z,8.35
2023-05-21T23:21:08.019Z,8.77
2023-05-21T23:23:35.460Z,8.02
2023-05-21T23:26:02.835Z,9.50
2023-05-21T23:28:29.847Z,8.80
2023-05-21T23:30:56.691Z,9.45
2023-05-21T23:33:23.511Z,8.80
2023-05-21T23:35:51.355Z,8.93
2023-05-21T23:38:18.221Z,7.93
2023-05-21T23:40:45.125Z,9.35
2023-05-21T23:43:12.358Z,8.98
2023-05-21T23:45:41.151Z,9.35
2023-05-21T23:48:11.810Z,9.32
2023-05-21T23:50:39.939Z,8.93
2023-05-21T23:53:07.067Z,9.55
2023-05-21T23:55:33.874Z,8.13
2023-05-21T23:58:01.310Z,9.52
